PWSweather.com
Personal Weather Stations
Station Observations
WD4JKH
Forsyth, GA 31029

Forsyth, GA 31029

Lat: 33.033225, Lon: -83.927995

Elevation: 709

Station Type: Davis Vantage VUE

High Low Average
Temperature 87.6°F30.9°C 69.1°F20.6°C 75.2°F24.0°C
Dew Point 77.1°F25.1°C 68.2°F20.1°C 71.9°F22.2°C
Winds 12.5 mph 20.1 kmh Calm Calm 2.0 mph S3.2 kmh S
Wind Gusts 27.0 mph43.5 kmh -- 7.0 mph11.3 kmh
Humidity 98% 63% 90%
Pressure 29.85 in1010.8 mb 29.70 in1005.8 mb -
Precipitation 0.60 in15.2 mm - -
Hour Temp Dew Point Humidity Winds Wind Gusts Pressure Precip Precip Rate Daily Precip Total
12:04 AM 72.4°F22.4°C 70.5°F21.4°C 94% 1.2 mph SE1.9 kmh SE 3.0 mph4.8 kmh 29.86 in1011.2 mb 0.00 in0.0 mm 0.00 in0.0 mm 0.37 in9.4 mm
12:09 AM 72.4°F22.4°C 70.5°F21.4°C 94% 2.3 mph SE3.7 kmh SE 4.0 mph6.4 kmh 29.85 in1010.8 mb 0.00 in0.0 mm 0.00 in0.0 mm 0.00 in0.0 mm
12:14 AM 72.5°F22.5°C 70.6°F21.4°C 94% 1.2 mph SE1.9 kmh SE 4.0 mph6.4 kmh 29.85 in1010.8 mb 0.00 in0.0 mm 0.00 in0.0 mm 0.00 in0.0 mm
12:19 AM 72.4°F22.4°C 70.9°F21.6°C 95% 1.7 mph SE2.7 kmh SE 4.0 mph6.4 kmh 29.85 in1010.8 mb 0.00 in0.0 mm 0.00 in0.0 mm 0.00 in0.0 mm
12:24 AM 72.4°F22.4°C 70.9°F21.6°C 95% 2.2 mph SE3.5 kmh SE 4.0 mph6.4 kmh 29.85 in1010.8 mb 0.00 in0.0 mm 0.00 in0.0 mm 0.00 in0.0 mm
12:29 AM 72.5°F22.5°C 71.0°F21.7°C 95% 1.7 mph SE2.7 kmh SE 4.0 mph6.4 kmh 29.85 in1010.8 mb 0.00 in0.0 mm 0.00 in0.0 mm 0.00 in0.0 mm
12:34 AM 72.4°F22.4°C 70.9°F21.6°C 95% 1.6 mph SE2.6 kmh SE 4.0 mph6.4 kmh 29.85 in1010.8 mb 0.00 in0.0 mm 0.00 in0.0 mm 0.00 in0.0 mm
12:39 AM 72.5°F22.5°C 71.0°F21.7°C 95% 1.2 mph SE1.9 kmh SE 4.0 mph6.4 kmh 29.85 in1010.8 mb 0.00 in0.0 mm 0.00 in0.0 mm 0.00 in0.0 mm
12:44 AM 72.5°F22.5°C 71.0°F21.7°C 95% 1.3 mph SE2.1 kmh SE 4.0 mph6.4 kmh 29.85 in1010.8 mb 0.00 in0.0 mm 0.00 in0.0 mm 0.00 in0.0 mm
12:49 AM 72.6°F22.6°C 71.1°F21.7°C 95% 1.5 mph SE2.4 kmh SE 4.0 mph6.4 kmh 29.84 in1010.5 mb 0.00 in0.0 mm 0.00 in0.0 mm 0.00 in0.0 mm
12:54 AM 72.6°F22.6°C 71.1°F21.7°C 95% 1.0 mph S1.6 kmh S 5.0 mph8.0 kmh 29.85 in1010.8 mb 0.00 in0.0 mm 0.00 in0.0 mm 0.00 in0.0 mm
12:59 AM 72.6°F22.6°C 71.1°F21.7°C 95% 1.5 mph SSE2.4 kmh SSE 5.0 mph8.0 kmh 29.85 in1010.8 mb 0.00 in0.0 mm 0.00 in0.0 mm 0.00 in0.0 mm
01:04 AM 72.6°F22.6°C 71.1°F21.7°C 95% 1.2 mph SSE1.9 kmh SSE 5.0 mph8.0 kmh 29.85 in1010.8 mb 0.00 in0.0 mm 0.00 in0.0 mm 0.00 in0.0 mm
01:09 AM 72.6°F22.6°C 71.1°F21.7°C 95% 1.0 mph SSE1.6 kmh SSE 5.0 mph8.0 kmh 29.85 in1010.8 mb 0.00 in0.0 mm 0.00 in0.0 mm 0.00 in0.0 mm
01:14 AM 72.7°F22.6°C 71.2°F21.8°C 95% 1.2 mph SE1.9 kmh SE 3.0 mph4.8 kmh 29.85 in1010.8 mb 0.00 in0.0 mm 0.00 in0.0 mm 0.00 in0.0 mm
01:19 AM 72.7°F22.6°C 71.2°F21.8°C 95% 1.2 mph SE1.9 kmh SE 3.0 mph4.8 kmh 29.84 in1010.5 mb 0.00 in0.0 mm 0.00 in0.0 mm 0.00 in0.0 mm
01:24 AM 72.7°F22.6°C 71.2°F21.8°C 95% 1.0 mph SE1.6 kmh SE 3.0 mph4.8 kmh 29.84 in1010.5 mb 0.00 in0.0 mm 0.00 in0.0 mm 0.00 in0.0 mm
01:29 AM 72.7°F22.6°C 71.5°F21.9°C 96% 1.0 mph SE1.6 kmh SE 3.0 mph4.8 kmh 29.84 in1010.5 mb 0.00 in0.0 mm 0.00 in0.0 mm 0.00 in0.0 mm
01:34 AM 72.7°F22.6°C 71.5°F21.9°C 96% 1.1 mph SE1.8 kmh SE 3.0 mph4.8 kmh 29.84 in1010.5 mb 0.00 in0.0 mm 0.00 in0.0 mm 0.00 in0.0 mm
01:39 AM 72.8°F22.7°C 71.6°F22.0°C 96% 1.8 mph SSE2.9 kmh SSE 4.0 mph6.4 kmh 29.84 in1010.5 mb 0.00 in0.0 mm 0.00 in0.0 mm 0.00 in0.0 mm
01:44 AM 72.8°F22.7°C 71.6°F22.0°C 96% 1.4 mph SSE2.3 kmh SSE 4.0 mph6.4 kmh 29.84 in1010.5 mb 0.00 in0.0 mm 0.00 in0.0 mm 0.00 in0.0 mm
01:49 AM 72.8°F22.7°C 71.6°F22.0°C 96% 1.7 mph SE2.7 kmh SE 4.0 mph6.4 kmh 29.83 in1010.2 mb 0.00 in0.0 mm 0.00 in0.0 mm 0.00 in0.0 mm
01:54 AM 72.9°F22.7°C 71.7°F22.1°C 96% 1.1 mph SE1.8 kmh SE 5.0 mph8.0 kmh 29.83 in1010.2 mb 0.00 in0.0 mm 0.00 in0.0 mm 0.00 in0.0 mm
01:59 AM 72.9°F22.7°C 71.7°F22.1°C 96% 1.7 mph SE2.7 kmh SE 5.0 mph8.0 kmh 29.83 in1010.2 mb 0.00 in0.0 mm 0.00 in0.0 mm 0.00 in0.0 mm
02:04 AM 72.9°F22.7°C 71.7°F22.1°C 96% 1.6 mph SSE2.6 kmh SSE 5.0 mph8.0 kmh 29.83 in1010.2 mb 0.00 in0.0 mm 0.00 in0.0 mm 0.00 in0.0 mm
02:08 AM 72.9°F22.7°C 71.7°F22.1°C 96% 1.6 mph SE2.6 kmh SE 5.0 mph8.0 kmh 29.82 in1009.8 mb 0.00 in0.0 mm 0.00 in0.0 mm 0.00 in0.0 mm
02:13 AM 72.9°F22.7°C 71.7°F22.1°C 96% 1.8 mph SE2.9 kmh SE 5.0 mph8.0 kmh 29.82 in1009.8 mb 0.00 in0.0 mm 0.00 in0.0 mm 0.00 in0.0 mm
02:18 AM 73.0°F22.8°C 71.8°F22.1°C 96% 1.0 mph SE1.6 kmh SE 5.0 mph8.0 kmh 29.82 in1009.8 mb 0.00 in0.0 mm 0.00 in0.0 mm 0.00 in0.0 mm
02:23 AM 73.0°F22.8°C 71.8°F22.1°C 96% 1.7 mph SE2.7 kmh SE 5.0 mph8.0 kmh 29.82 in1009.8 mb 0.00 in0.0 mm 0.00 in0.0 mm 0.00 in0.0 mm
02:28 AM 73.0°F22.8°C 71.8°F22.1°C 96% 2.2 mph SE3.5 kmh SE 5.0 mph8.0 kmh 29.81 in1009.5 mb 0.00 in0.0 mm 0.00 in0.0 mm 0.00 in0.0 mm
02:33 AM 73.1°F22.8°C 71.9°F22.2°C 96% 1.5 mph SE2.4 kmh SE 7.0 mph11.3 kmh 29.81 in1009.5 mb 0.00 in0.0 mm 0.00 in0.0 mm 0.00 in0.0 mm
02:38 AM 73.1°F22.8°C 71.9°F22.2°C 96% 1.0 mph SE1.6 kmh SE 7.0 mph11.3 kmh 29.81 in1009.5 mb 0.00 in0.0 mm 0.00 in0.0 mm 0.00 in0.0 mm
02:43 AM 73.1°F22.8°C 71.9°F22.2°C 96% 1.0 mph SSE1.6 kmh SSE 7.0 mph11.3 kmh 29.82 in1009.8 mb 0.00 in0.0 mm 0.00 in0.0 mm 0.00 in0.0 mm
02:48 AM 73.1°F22.8°C 71.9°F22.2°C 96% Calm Calm 7.0 mph11.3 kmh 29.82 in1009.8 mb 0.00 in0.0 mm 0.00 in0.0 mm 0.00 in0.0 mm
02:53 AM 73.0°F22.8°C 71.8°F22.1°C 96% 1.0 mph SSW1.6 kmh SSW 4.0 mph6.4 kmh 29.82 in1009.8 mb 0.00 in0.0 mm 0.00 in0.0 mm 0.00 in0.0 mm
02:58 AM 73.0°F22.8°C 71.8°F22.1°C 96% 1.4 mph SSW2.3 kmh SSW 4.0 mph6.4 kmh 29.82 in1009.8 mb 0.00 in0.0 mm 0.00 in0.0 mm 0.00 in0.0 mm
03:03 AM 73.0°F22.8°C 71.8°F22.1°C 96% 1.6 mph SSE2.6 kmh SSE 4.0 mph6.4 kmh 29.81 in1009.5 mb 0.00 in0.0 mm 0.00 in0.0 mm 0.00 in0.0 mm
03:08 AM 72.9°F22.7°C 71.7°F22.1°C 96% 1.5 mph S2.4 kmh S 4.0 mph6.4 kmh 29.81 in1009.5 mb 0.00 in0.0 mm 0.00 in0.0 mm 0.00 in0.0 mm
03:13 AM 72.9°F22.7°C 71.7°F22.1°C 96% 1.5 mph SSW2.4 kmh SSW 3.0 mph4.8 kmh 29.81 in1009.5 mb 0.00 in0.0 mm 0.00 in0.0 mm 0.00 in0.0 mm
03:18 AM 72.9°F22.7°C 71.7°F22.1°C 96% 1.3 mph SE2.1 kmh SE 3.0 mph4.8 kmh 29.81 in1009.5 mb 0.00 in0.0 mm 0.00 in0.0 mm 0.00 in0.0 mm
03:23 AM 72.8°F22.7°C 71.6°F22.0°C 96% 1.0 mph SW1.6 kmh SW 3.0 mph4.8 kmh 29.81 in1009.5 mb 0.00 in0.0 mm 0.00 in0.0 mm 0.00 in0.0 mm
03:28 AM 72.8°F22.7°C 71.6°F22.0°C 96% 1.0 mph WSW1.6 kmh WSW 3.0 mph4.8 kmh 29.81 in1009.5 mb 0.00 in0.0 mm 0.00 in0.0 mm 0.00 in0.0 mm
03:33 AM 72.7°F22.6°C 71.5°F21.9°C 96% 1.0 mph WSW1.6 kmh WSW 3.0 mph4.8 kmh 29.80 in1009.1 mb 0.00 in0.0 mm 0.00 in0.0 mm 0.00 in0.0 mm
03:38 AM 72.7°F22.6°C 71.5°F21.9°C 96% 1.1 mph S1.8 kmh S 3.0 mph4.8 kmh 29.80 in1009.1 mb 0.00 in0.0 mm 0.00 in0.0 mm 0.00 in0.0 mm
03:43 AM 72.7°F22.6°C 71.5°F21.9°C 96% 1.0 mph S1.6 kmh S 3.0 mph4.8 kmh 29.80 in1009.1 mb 0.00 in0.0 mm 0.00 in0.0 mm 0.00 in0.0 mm
03:48 AM 72.7°F22.6°C 71.5°F21.9°C 96% 1.7 mph SE2.7 kmh SE 5.0 mph8.0 kmh 29.80 in1009.1 mb 0.00 in0.0 mm 0.00 in0.0 mm 0.00 in0.0 mm
03:53 AM 72.6°F22.6°C 71.4°F21.9°C 96% Calm Calm 5.0 mph8.0 kmh 29.80 in1009.1 mb 0.00 in0.0 mm 0.00 in0.0 mm 0.00 in0.0 mm
03:58 AM 72.7°F22.6°C 71.5°F21.9°C 96% Calm Calm 5.0 mph8.0 kmh 29.80 in1009.1 mb 0.00 in0.0 mm 0.00 in0.0 mm 0.00 in0.0 mm
04:03 AM 72.6°F22.6°C 71.4°F21.9°C 96% 1.6 mph SSE2.6 kmh SSE 5.0 mph8.0 kmh 29.79 in1008.8 mb 0.00 in0.0 mm 0.00 in0.0 mm 0.00 in0.0 mm
04:08 AM 72.6°F22.6°C 71.4°F21.9°C 96% Calm Calm 4.0 mph6.4 kmh 29.79 in1008.8 mb 0.00 in0.0 mm 0.00 in0.0 mm 0.00 in0.0 mm
04:13 AM 72.5°F22.5°C 71.3°F21.8°C 96% 1.0 mph SE1.6 kmh SE 4.0 mph6.4 kmh 29.79 in1008.8 mb 0.00 in0.0 mm 0.00 in0.0 mm 0.00 in0.0 mm
04:18 AM 72.5°F22.5°C 71.3°F21.8°C 96% 1.4 mph SW2.3 kmh SW 4.0 mph6.4 kmh 29.79 in1008.8 mb 0.00 in0.0 mm 0.00 in0.0 mm 0.00 in0.0 mm
04:23 AM 72.4°F22.4°C 71.5°F21.9°C 97% 1.6 mph S2.6 kmh S 3.0 mph4.8 kmh 29.79 in1008.8 mb 0.02 in0.5 mm 0.24 in6.1 mm 0.02 in0.5 mm
04:28 AM 72.4°F22.4°C 71.5°F21.9°C 97% 1.4 mph S2.3 kmh S 3.0 mph4.8 kmh 29.79 in1008.8 mb 0.04 in1.0 mm 0.24 in6.1 mm 0.04 in1.0 mm
04:33 AM 72.3°F22.4°C 71.4°F21.9°C 97% 1.0 mph SE1.6 kmh SE 3.0 mph4.8 kmh 29.79 in1008.8 mb 0.06 in1.5 mm 0.24 in6.1 mm 0.06 in1.5 mm
04:38 AM 72.3°F22.4°C 71.4°F21.9°C 97% 1.3 mph SSE2.1 kmh SSE 3.0 mph4.8 kmh 29.78 in1008.5 mb 0.07 in1.8 mm 0.12 in3.0 mm 0.07 in1.8 mm
04:43 AM 72.2°F22.3°C 71.3°F21.8°C 97% 1.5 mph SE2.4 kmh SE 2.0 mph3.2 kmh 29.78 in1008.5 mb 0.08 in2.0 mm 0.12 in3.0 mm 0.08 in2.0 mm
04:48 AM 72.2°F22.3°C 71.3°F21.8°C 97% 1.4 mph SE2.3 kmh SE 3.0 mph4.8 kmh 29.78 in1008.5 mb 0.08 in2.0 mm 0.00 in0.0 mm 0.08 in2.0 mm
04:53 AM 72.2°F22.3°C 71.3°F21.8°C 97% 2.4 mph SE3.9 kmh SE 4.0 mph6.4 kmh 29.78 in1008.5 mb 0.08 in2.0 mm 0.00 in0.0 mm 0.08 in2.0 mm
04:58 AM 72.2°F22.3°C 71.3°F21.8°C 97% 1.5 mph SE2.4 kmh SE 4.0 mph6.4 kmh 29.77 in1008.1 mb 0.08 in2.0 mm 0.00 in0.0 mm 0.08 in2.0 mm
05:03 AM 72.2°F22.3°C 71.3°F21.8°C 97% 3.6 mph SE5.8 kmh SE 6.0 mph9.7 kmh 29.76 in1007.8 mb 0.08 in2.0 mm 0.00 in0.0 mm 0.08 in2.0 mm
05:08 AM 72.1°F22.3°C 71.2°F21.8°C 97% 3.4 mph SE5.5 kmh SE 6.0 mph9.7 kmh 29.76 in1007.8 mb 0.08 in2.0 mm 0.00 in0.0 mm 0.08 in2.0 mm
05:13 AM 72.1°F22.3°C 71.2°F21.8°C 97% 2.8 mph SE4.5 kmh SE 7.0 mph11.3 kmh 29.75 in1007.5 mb 0.08 in2.0 mm 0.00 in0.0 mm 0.08 in2.0 mm
05:18 AM 72.1°F22.3°C 71.2°F21.8°C 97% 4.0 mph SE6.4 kmh SE 12.0 mph19.3 kmh 29.76 in1007.8 mb 0.09 in2.3 mm 0.12 in3.0 mm 0.09 in2.3 mm
05:23 AM 72.2°F22.3°C 71.3°F21.8°C 97% 3.5 mph SE5.6 kmh SE 12.0 mph19.3 kmh 29.75 in1007.5 mb 0.07 in1.8 mm 0.00 in0.0 mm 0.09 in2.3 mm
05:28 AM 72.2°F22.3°C 71.3°F21.8°C 97% 5.1 mph SE8.2 kmh SE 12.0 mph19.3 kmh 29.75 in1007.5 mb 0.05 in1.3 mm 0.00 in0.0 mm 0.09 in2.3 mm
05:33 AM 72.2°F22.3°C 71.3°F21.8°C 97% 4.2 mph SE6.8 kmh SE 12.0 mph19.3 kmh 29.75 in1007.5 mb 0.03 in0.8 mm 0.00 in0.0 mm 0.09 in2.3 mm
05:38 AM 72.3°F22.4°C 71.4°F21.9°C 97% 4.0 mph SE6.4 kmh SE 11.0 mph17.7 kmh 29.76 in1007.8 mb 0.02 in0.5 mm 0.00 in0.0 mm 0.09 in2.3 mm
05:43 AM 72.3°F22.4°C 71.4°F21.9°C 97% 4.4 mph SE7.1 kmh SE 12.0 mph19.3 kmh 29.77 in1008.1 mb 0.01 in0.3 mm 0.00 in0.0 mm 0.09 in2.3 mm
05:48 AM 72.4°F22.4°C 71.5°F21.9°C 97% 2.9 mph SSE4.7 kmh SSE 12.0 mph19.3 kmh 29.76 in1007.8 mb 0.01 in0.3 mm 0.00 in0.0 mm 0.09 in2.3 mm
05:53 AM 72.4°F22.4°C 71.8°F22.1°C 98% 4.3 mph SE6.9 kmh SE 12.0 mph19.3 kmh 29.77 in1008.1 mb 0.01 in0.3 mm 0.00 in0.0 mm 0.09 in2.3 mm
05:58 AM 72.5°F22.5°C 71.6°F22.0°C 97% 5.3 mph SE8.5 kmh SE 11.0 mph17.7 kmh 29.76 in1007.8 mb 0.01 in0.3 mm 0.00 in0.0 mm 0.09 in2.3 mm
06:03 AM 72.6°F22.6°C 71.7°F22.1°C 97% 1.8 mph S2.9 kmh S 11.0 mph17.7 kmh 29.77 in1008.1 mb 0.01 in0.3 mm 0.00 in0.0 mm 0.09 in2.3 mm
06:08 AM 72.5°F22.5°C 71.6°F22.0°C 97% 4.9 mph WNW7.9 kmh WNW 12.0 mph19.3 kmh 29.78 in1008.5 mb 0.01 in0.3 mm 0.00 in0.0 mm 0.09 in2.3 mm
06:13 AM 72.3°F22.4°C 71.4°F21.9°C 97% 1.4 mph WSW2.3 kmh WSW 12.0 mph19.3 kmh 29.78 in1008.5 mb 0.01 in0.3 mm 0.00 in0.0 mm 0.09 in2.3 mm
06:18 AM 72.2°F22.3°C 71.0°F21.7°C 96% 4.4 mph ENE7.1 kmh ENE 12.0 mph19.3 kmh 29.75 in1007.5 mb 0.00 in0.0 mm 0.00 in0.0 mm 0.09 in2.3 mm
06:23 AM 72.3°F22.4°C 71.1°F21.7°C 96% 3.9 mph WNW6.3 kmh WNW 12.0 mph19.3 kmh 29.77 in1008.1 mb 0.01 in0.3 mm 0.12 in3.0 mm 0.10 in2.5 mm
06:28 AM 72.1°F22.3°C 70.9°F21.6°C 96% 2.3 mph W3.7 kmh W 10.0 mph16.1 kmh 29.77 in1008.1 mb 0.03 in0.8 mm 0.24 in6.1 mm 0.12 in3.0 mm
06:33 AM 72.0°F22.2°C 70.8°F21.6°C 96% 2.3 mph W3.7 kmh W 10.0 mph16.1 kmh 29.77 in1008.1 mb 0.03 in0.8 mm 0.00 in0.0 mm 0.12 in3.0 mm
06:38 AM 72.0°F22.2°C 70.8°F21.6°C 96% 2.5 mph SW4.0 kmh SW 10.0 mph16.1 kmh 29.77 in1008.1 mb 0.03 in0.8 mm 0.00 in0.0 mm 0.12 in3.0 mm
06:43 AM 72.0°F22.2°C 70.8°F21.6°C 96% Calm Calm 6.0 mph9.7 kmh 29.77 in1008.1 mb 0.03 in0.8 mm 0.00 in0.0 mm 0.12 in3.0 mm
06:48 AM 72.0°F22.2°C 71.1°F21.7°C 97% 2.5 mph SW4.0 kmh SW 6.0 mph9.7 kmh 29.77 in1008.1 mb 0.03 in0.8 mm 0.00 in0.0 mm 0.12 in3.0 mm
06:53 AM 72.1°F22.3°C 71.2°F21.8°C 97% 2.0 mph S3.2 kmh S 7.0 mph11.3 kmh 29.77 in1008.1 mb 0.15 in3.8 mm 1.44 in36.6 mm 0.24 in6.1 mm
06:58 AM 72.3°F22.4°C 71.4°F21.9°C 97% 1.8 mph SW2.9 kmh SW 7.0 mph11.3 kmh 29.77 in1008.1 mb 0.23 in5.8 mm 0.96 in24.4 mm 0.32 in8.1 mm
07:03 AM 72.4°F22.4°C 71.5°F21.9°C 97% 1.2 mph S1.9 kmh S 7.0 mph11.3 kmh 29.78 in1008.5 mb 0.25 in6.4 mm 0.02 in0.5 mm 0.34 in8.6 mm
07:08 AM 72.6°F22.6°C 71.7°F22.1°C 97% 2.0 mph SSW3.2 kmh SSW 5.0 mph8.0 kmh 29.78 in1008.5 mb 0.26 in6.6 mm 0.12 in3.0 mm 0.35 in8.9 mm
07:13 AM 72.6°F22.6°C 71.7°F22.1°C 97% 1.8 mph SW2.9 kmh SW 5.0 mph8.0 kmh 29.78 in1008.5 mb 0.28 in7.1 mm 0.24 in6.1 mm 0.37 in9.4 mm
07:18 AM 72.7°F22.6°C 71.8°F22.1°C 97% 2.3 mph SSW3.7 kmh SSW 7.0 mph11.3 kmh 29.79 in1008.8 mb 0.28 in7.1 mm 0.00 in0.0 mm 0.37 in9.4 mm
07:23 AM 72.8°F22.7°C 72.2°F22.3°C 98% 2.5 mph WSW4.0 kmh WSW 11.0 mph17.7 kmh 29.79 in1008.8 mb 0.29 in7.4 mm 0.12 in3.0 mm 0.39 in9.9 mm
07:28 AM 72.8°F22.7°C 72.2°F22.3°C 98% 1.6 mph S2.6 kmh S 11.0 mph17.7 kmh 29.79 in1008.8 mb 0.29 in7.4 mm 0.00 in0.0 mm 0.41 in10.4 mm
07:33 AM 72.8°F22.7°C 72.2°F22.3°C 98% 2.4 mph SW3.9 kmh SW 11.0 mph17.7 kmh 29.79 in1008.8 mb 0.31 in7.9 mm 0.24 in6.1 mm 0.43 in10.9 mm
07:38 AM 72.9°F22.7°C 72.3°F22.4°C 98% 1.3 mph WSW2.1 kmh WSW 9.0 mph14.5 kmh 29.79 in1008.8 mb 0.33 in8.4 mm 0.24 in6.1 mm 0.45 in11.4 mm
07:43 AM 72.9°F22.7°C 72.3°F22.4°C 98% 2.2 mph SW3.5 kmh SW 8.0 mph12.9 kmh 29.79 in1008.8 mb 0.36 in9.1 mm 0.36 in9.1 mm 0.48 in12.2 mm
07:48 AM 73.0°F22.8°C 72.4°F22.4°C 98% 1.0 mph WSW1.6 kmh WSW 11.0 mph17.7 kmh 29.80 in1009.1 mb 0.36 in9.1 mm 0.00 in0.0 mm 0.48 in12.2 mm
07:53 AM 73.0°F22.8°C 72.4°F22.4°C 98% 1.6 mph SW2.6 kmh SW 11.0 mph17.7 kmh 29.80 in1009.1 mb 0.24 in6.1 mm 0.00 in0.0 mm 0.48 in12.2 mm
07:58 AM 73.0°F22.8°C 72.4°F22.4°C 98% 2.8 mph SSW4.5 kmh SSW 11.0 mph17.7 kmh 29.79 in1008.8 mb 0.15 in3.8 mm 0.00 in0.0 mm 0.48 in12.2 mm
08:03 AM 73.1°F22.8°C 72.5°F22.5°C 98% 1.0 mph SW1.6 kmh SW 5.0 mph8.0 kmh 29.79 in1008.8 mb 0.14 in3.6 mm 0.00 in0.0 mm 0.48 in12.2 mm
08:07 AM 73.1°F22.8°C 72.5°F22.5°C 98% 1.2 mph SE1.9 kmh SE 5.0 mph8.0 kmh 29.79 in1008.8 mb 0.14 in3.6 mm 0.00 in0.0 mm 0.48 in12.2 mm
08:12 AM 73.2°F22.9°C 72.6°F22.6°C 98% 1.5 mph SE2.4 kmh SE 5.0 mph8.0 kmh 29.79 in1008.8 mb 0.12 in3.0 mm 0.00 in0.0 mm 0.48 in12.2 mm
08:17 AM 73.2°F22.9°C 72.6°F22.6°C 98% 1.3 mph SE2.1 kmh SE 3.0 mph4.8 kmh 29.79 in1008.8 mb 0.11 in2.8 mm 0.00 in0.0 mm 0.48 in12.2 mm
08:22 AM 73.2°F22.9°C 72.6°F22.6°C 98% 3.2 mph WSW5.1 kmh WSW 10.0 mph16.1 kmh 29.79 in1008.8 mb 0.10 in2.5 mm 0.00 in0.0 mm 0.48 in12.2 mm
08:27 AM 73.1°F22.8°C 72.2°F22.3°C 97% 1.7 mph WSW2.7 kmh WSW 10.0 mph16.1 kmh 29.79 in1008.8 mb 0.07 in1.8 mm 0.00 in0.0 mm 0.48 in12.2 mm
08:32 AM 73.1°F22.8°C 72.2°F22.3°C 97% 1.3 mph SW2.1 kmh SW 10.0 mph16.1 kmh 29.79 in1008.8 mb 0.10 in2.5 mm 0.36 in9.1 mm 0.52 in13.2 mm
08:37 AM 73.2°F22.9°C 72.3°F22.4°C 97% 1.2 mph SW1.9 kmh SW 10.0 mph16.1 kmh 29.80 in1009.1 mb 0.07 in1.8 mm 0.00 in0.0 mm 0.52 in13.2 mm
08:42 AM 73.2°F22.9°C 72.6°F22.6°C 98% Calm Calm 3.0 mph4.8 kmh 29.79 in1008.8 mb 0.06 in1.5 mm 0.00 in0.0 mm 0.52 in13.2 mm
08:47 AM 73.3°F22.9°C 72.7°F22.6°C 98% Calm Calm 3.0 mph4.8 kmh 29.79 in1008.8 mb 0.04 in1.0 mm 0.00 in0.0 mm 0.52 in13.2 mm
08:52 AM 73.5°F23.1°C 72.9°F22.7°C 98% 1.5 mph SW2.4 kmh SW 2.0 mph3.2 kmh 29.79 in1008.8 mb 0.04 in1.0 mm 0.00 in0.0 mm 0.52 in13.2 mm
08:57 AM 73.6°F23.1°C 73.0°F22.8°C 98% 2.9 mph SW4.7 kmh SW 5.0 mph8.0 kmh 29.79 in1008.8 mb 0.04 in1.0 mm 0.00 in0.0 mm 0.52 in13.2 mm
09:02 AM 73.8°F23.2°C 73.2°F22.9°C 98% 1.0 mph SE1.6 kmh SE 5.0 mph8.0 kmh 29.79 in1008.8 mb 0.04 in1.0 mm 0.00 in0.0 mm 0.52 in13.2 mm
09:07 AM 73.9°F23.3°C 73.3°F22.9°C 98% 2.2 mph S3.5 kmh S 5.0 mph8.0 kmh 29.79 in1008.8 mb 0.04 in1.0 mm 0.00 in0.0 mm 0.52 in13.2 mm
09:12 AM 74.0°F23.3°C 73.4°F23.0°C 98% 2.1 mph SSW3.4 kmh SSW 5.0 mph8.0 kmh 29.79 in1008.8 mb 0.04 in1.0 mm 0.00 in0.0 mm 0.52 in13.2 mm
09:17 AM 74.2°F23.4°C 73.6°F23.1°C 98% Calm Calm 5.0 mph8.0 kmh 29.79 in1008.8 mb 0.04 in1.0 mm 0.00 in0.0 mm 0.52 in13.2 mm
09:22 AM 74.1°F23.4°C 73.5°F23.1°C 98% 1.3 mph SW2.1 kmh SW 6.0 mph9.7 kmh 29.79 in1008.8 mb 0.04 in1.0 mm 0.00 in0.0 mm 0.52 in13.2 mm
09:27 AM 74.2°F23.4°C 73.6°F23.1°C 98% 1.7 mph SW2.7 kmh SW 7.0 mph11.3 kmh 29.79 in1008.8 mb 0.04 in1.0 mm 0.00 in0.0 mm 0.52 in13.2 mm
09:32 AM 74.2°F23.4°C 73.6°F23.1°C 98% 2.5 mph SSW4.0 kmh SSW 7.0 mph11.3 kmh 29.79 in1008.8 mb 0.00 in0.0 mm 0.00 in0.0 mm 0.52 in13.2 mm
09:37 AM 74.2°F23.4°C 73.3°F22.9°C 97% 1.9 mph SW3.1 kmh SW 7.0 mph11.3 kmh 29.79 in1008.8 mb 0.00 in0.0 mm 0.00 in0.0 mm 0.52 in13.2 mm
09:42 AM 74.2°F23.4°C 73.3°F22.9°C 97% 1.9 mph SSW3.1 kmh SSW 6.0 mph9.7 kmh 29.79 in1008.8 mb 0.00 in0.0 mm 0.00 in0.0 mm 0.52 in13.2 mm
09:47 AM 74.3°F23.5°C 73.4°F23.0°C 97% 1.7 mph SW2.7 kmh SW 6.0 mph9.7 kmh 29.79 in1008.8 mb 0.00 in0.0 mm 0.00 in0.0 mm 0.52 in13.2 mm
09:52 AM 74.3°F23.5°C 73.4°F23.0°C 97% 1.3 mph S2.1 kmh S 5.0 mph8.0 kmh 29.79 in1008.8 mb 0.00 in0.0 mm 0.00 in0.0 mm 0.52 in13.2 mm
09:57 AM 74.4°F23.6°C 73.5°F23.1°C 97% 1.2 mph S1.9 kmh S 5.0 mph8.0 kmh 29.79 in1008.8 mb 0.00 in0.0 mm 0.00 in0.0 mm 0.52 in13.2 mm
10:02 AM 74.5°F23.6°C 73.6°F23.1°C 97% 1.5 mph SSW2.4 kmh SSW 5.0 mph8.0 kmh 29.79 in1008.8 mb 0.00 in0.0 mm 0.00 in0.0 mm 0.52 in13.2 mm
10:07 AM 74.7°F23.7°C 73.8°F23.2°C 97% 1.8 mph S2.9 kmh S 4.0 mph6.4 kmh 29.79 in1008.8 mb 0.00 in0.0 mm 0.00 in0.0 mm 0.52 in13.2 mm
10:12 AM 74.9°F23.8°C 74.0°F23.3°C 97% 2.1 mph S3.4 kmh S 4.0 mph6.4 kmh 29.79 in1008.8 mb 0.00 in0.0 mm 0.00 in0.0 mm 0.52 in13.2 mm
10:17 AM 74.9°F23.8°C 74.0°F23.3°C 97% 1.9 mph SSW3.1 kmh SSW 4.0 mph6.4 kmh 29.79 in1008.8 mb 0.00 in0.0 mm 0.00 in0.0 mm 0.52 in13.2 mm
10:22 AM 75.2°F24.0°C 74.3°F23.5°C 97% 2.9 mph SW4.7 kmh SW 6.0 mph9.7 kmh 29.79 in1008.8 mb 0.00 in0.0 mm 0.00 in0.0 mm 0.52 in13.2 mm
10:27 AM 75.7°F24.3°C 74.8°F23.8°C 97% 1.8 mph SW2.9 kmh SW 6.0 mph9.7 kmh 29.79 in1008.8 mb 0.00 in0.0 mm 0.00 in0.0 mm 0.52 in13.2 mm
10:32 AM 75.9°F24.4°C 75.0°F23.9°C 97% 2.1 mph S3.4 kmh S 7.0 mph11.3 kmh 29.79 in1008.8 mb 0.00 in0.0 mm 0.00 in0.0 mm 0.52 in13.2 mm
10:37 AM 76.1°F24.5°C 74.8°F23.8°C 96% 2.6 mph SW4.2 kmh SW 7.0 mph11.3 kmh 29.79 in1008.8 mb 0.00 in0.0 mm 0.00 in0.0 mm 0.52 in13.2 mm
10:42 AM 76.4°F24.7°C 75.1°F23.9°C 96% 2.1 mph SW3.4 kmh SW 7.0 mph11.3 kmh 29.79 in1008.8 mb 0.00 in0.0 mm 0.00 in0.0 mm 0.52 in13.2 mm
10:47 AM 77.2°F25.1°C 75.9°F24.4°C 96% 1.2 mph SSW1.9 kmh SSW 7.0 mph11.3 kmh 29.79 in1008.8 mb 0.00 in0.0 mm 0.00 in0.0 mm 0.52 in13.2 mm
10:52 AM 77.7°F25.4°C 75.8°F24.3°C 94% 2.6 mph SW4.2 kmh SW 7.0 mph11.3 kmh 29.78 in1008.5 mb 0.00 in0.0 mm 0.00 in0.0 mm 0.52 in13.2 mm
10:57 AM 78.1°F25.6°C 75.9°F24.4°C 93% 1.7 mph SE2.7 kmh SE 7.0 mph11.3 kmh 29.78 in1008.5 mb 0.00 in0.0 mm 0.00 in0.0 mm 0.52 in13.2 mm
11:02 AM 78.8°F26.0°C 75.9°F24.4°C 91% 3.6 mph SSW5.8 kmh SSW 7.0 mph11.3 kmh 29.78 in1008.5 mb 0.00 in0.0 mm 0.00 in0.0 mm 0.52 in13.2 mm
11:07 AM 78.8°F26.0°C 75.6°F24.2°C 90% 1.9 mph SSW3.1 kmh SSW 10.0 mph16.1 kmh 29.78 in1008.5 mb 0.00 in0.0 mm 0.00 in0.0 mm 0.52 in13.2 mm
11:12 AM 78.6°F25.9°C 75.4°F24.1°C 90% 1.8 mph S2.9 kmh S 10.0 mph16.1 kmh 29.78 in1008.5 mb 0.00 in0.0 mm 0.00 in0.0 mm 0.52 in13.2 mm
11:17 AM 78.3°F25.7°C 75.1°F23.9°C 90% 4.1 mph SW6.6 kmh SW 10.0 mph16.1 kmh 29.79 in1008.8 mb 0.00 in0.0 mm 0.00 in0.0 mm 0.52 in13.2 mm
11:22 AM 78.5°F25.8°C 75.3°F24.1°C 90% 3.3 mph SW5.3 kmh SW 11.0 mph17.7 kmh 29.79 in1008.8 mb 0.00 in0.0 mm 0.00 in0.0 mm 0.52 in13.2 mm
11:27 AM 78.7°F25.9°C 75.2°F24.0°C 89% 4.7 mph SW7.6 kmh SW 11.0 mph17.7 kmh 29.79 in1008.8 mb 0.00 in0.0 mm 0.00 in0.0 mm 0.52 in13.2 mm
11:32 AM 79.6°F26.4°C 76.1°F24.5°C 89% 2.8 mph SW4.5 kmh SW 11.0 mph17.7 kmh 29.79 in1008.8 mb 0.00 in0.0 mm 0.00 in0.0 mm 0.52 in13.2 mm
11:37 AM 80.0°F26.7°C 75.5°F24.2°C 86% 4.0 mph SSW6.4 kmh SSW 11.0 mph17.7 kmh 29.79 in1008.8 mb 0.00 in0.0 mm 0.00 in0.0 mm 0.52 in13.2 mm
11:42 AM 80.2°F26.8°C 75.7°F24.3°C 86% 4.0 mph SW6.4 kmh SW 11.0 mph17.7 kmh 29.79 in1008.8 mb 0.00 in0.0 mm 0.00 in0.0 mm 0.52 in13.2 mm
11:47 AM 80.8°F27.1°C 76.2°F24.6°C 86% 2.4 mph SSW3.9 kmh SSW 11.0 mph17.7 kmh 29.79 in1008.8 mb 0.00 in0.0 mm 0.00 in0.0 mm 0.52 in13.2 mm
11:52 AM 81.1°F27.3°C 76.2°F24.6°C 85% 3.1 mph SSW5.0 kmh SSW 11.0 mph17.7 kmh 29.79 in1008.8 mb 0.00 in0.0 mm 0.00 in0.0 mm 0.52 in13.2 mm
11:57 AM 81.4°F27.4°C 76.5°F24.7°C 85% 2.3 mph SSW3.7 kmh SSW 10.0 mph16.1 kmh 29.78 in1008.5 mb 0.00 in0.0 mm 0.00 in0.0 mm 0.52 in13.2 mm
12:02 PM 81.7°F27.6°C 75.8°F24.3°C 82% 3.5 mph SW5.6 kmh SW 12.0 mph19.3 kmh 29.78 in1008.5 mb 0.00 in0.0 mm 0.00 in0.0 mm 0.52 in13.2 mm
12:07 PM 81.6°F27.6°C 76.0°F24.4°C 83% 3.0 mph SW4.8 kmh SW 12.0 mph19.3 kmh 29.78 in1008.5 mb 0.00 in0.0 mm 0.00 in0.0 mm 0.52 in13.2 mm
12:12 PM 81.4°F27.4°C 75.5°F24.2°C 82% 2.2 mph SW3.5 kmh SW 12.0 mph19.3 kmh 29.78 in1008.5 mb 0.00 in0.0 mm 0.00 in0.0 mm 0.52 in13.2 mm
12:17 PM 81.9°F27.7°C 76.0°F24.4°C 82% 3.0 mph S4.8 kmh S 12.0 mph19.3 kmh 29.78 in1008.5 mb 0.00 in0.0 mm 0.00 in0.0 mm 0.52 in13.2 mm
12:22 PM 82.4°F28.0°C 75.7°F24.3°C 80% 3.3 mph SSW5.3 kmh SSW 12.0 mph19.3 kmh 29.78 in1008.5 mb 0.00 in0.0 mm 0.00 in0.0 mm 0.52 in13.2 mm
12:27 PM 82.5°F28.1°C 75.5°F24.2°C 79% 3.3 mph SW5.3 kmh SW 12.0 mph19.3 kmh 29.77 in1008.1 mb 0.00 in0.0 mm 0.00 in0.0 mm 0.52 in13.2 mm
12:32 PM 82.9°F28.3°C 75.9°F24.4°C 79% 2.7 mph SSW4.3 kmh SSW 12.0 mph19.3 kmh 29.77 in1008.1 mb 0.00 in0.0 mm 0.00 in0.0 mm 0.52 in13.2 mm
12:37 PM 83.8°F28.8°C 76.7°F24.8°C 79% 2.9 mph SSW4.7 kmh SSW 12.0 mph19.3 kmh 29.77 in1008.1 mb 0.00 in0.0 mm 0.00 in0.0 mm 0.52 in13.2 mm
12:42 PM 83.9°F28.8°C 75.7°F24.3°C 76% 3.0 mph SW4.8 kmh SW 12.0 mph19.3 kmh 29.77 in1008.1 mb 0.00 in0.0 mm 0.00 in0.0 mm 0.52 in13.2 mm
12:47 PM 84.3°F29.1°C 75.7°F24.3°C 75% 2.3 mph SW3.7 kmh SW 10.0 mph16.1 kmh 29.77 in1008.1 mb 0.00 in0.0 mm 0.00 in0.0 mm 0.52 in13.2 mm
12:53 PM 84.7°F29.3°C 76.1°F24.5°C 75% 3.0 mph SW4.8 kmh SW 10.0 mph16.1 kmh 29.77 in1008.1 mb 0.00 in0.0 mm 0.00 in0.0 mm 0.52 in13.2 mm
12:57 PM 84.5°F29.2°C 75.3°F24.1°C 74% 3.4 mph SW5.5 kmh SW 12.0 mph19.3 kmh 29.77 in1008.1 mb 0.00 in0.0 mm 0.00 in0.0 mm 0.52 in13.2 mm
01:02 PM 84.8°F29.3°C 76.2°F24.6°C 75% 2.6 mph WSW4.2 kmh WSW 12.0 mph19.3 kmh 29.77 in1008.1 mb 0.00 in0.0 mm 0.00 in0.0 mm 0.52 in13.2 mm
01:08 PM 85.7°F29.8°C 77.1°F25.1°C 75% 4.1 mph SW6.6 kmh SW 12.0 mph19.3 kmh 29.76 in1007.8 mb 0.00 in0.0 mm 0.00 in0.0 mm 0.52 in13.2 mm
01:12 PM 85.4°F29.7°C 75.8°F24.3°C 73% 2.1 mph SSW3.4 kmh SSW 12.0 mph19.3 kmh 29.76 in1007.8 mb 0.00 in0.0 mm 0.00 in0.0 mm 0.52 in13.2 mm
01:17 PM 85.0°F29.4°C 75.2°F24.0°C 72% 2.7 mph WSW4.3 kmh WSW 9.0 mph14.5 kmh 29.76 in1007.8 mb 0.00 in0.0 mm 0.00 in0.0 mm 0.52 in13.2 mm
01:22 PM 85.3°F29.6°C 75.1°F23.9°C 71% 5.5 mph SSW8.9 kmh SSW 13.0 mph20.9 kmh 29.76 in1007.8 mb 0.00 in0.0 mm 0.00 in0.0 mm 0.52 in13.2 mm
01:27 PM 85.5°F29.7°C 74.8°F23.8°C 70% 3.3 mph SW5.3 kmh SW 13.0 mph20.9 kmh 29.76 in1007.8 mb 0.00 in0.0 mm 0.00 in0.0 mm 0.52 in13.2 mm
01:33 PM 85.7°F29.8°C 75.9°F24.4°C 72% 1.8 mph SW2.9 kmh SW 13.0 mph20.9 kmh 29.75 in1007.5 mb 0.00 in0.0 mm 0.00 in0.0 mm 0.52 in13.2 mm
01:38 PM 85.3°F29.6°C 75.1°F23.9°C 71% 4.7 mph SW7.6 kmh SW 13.0 mph20.9 kmh 29.75 in1007.5 mb 0.00 in0.0 mm 0.00 in0.0 mm 0.52 in13.2 mm
01:43 PM 85.4°F29.7°C 75.6°F24.2°C 72% 3.6 mph SW5.8 kmh SW 12.0 mph19.3 kmh 29.75 in1007.5 mb 0.00 in0.0 mm 0.00 in0.0 mm 0.52 in13.2 mm
01:48 PM 85.7°F29.8°C 74.4°F23.6°C 69% 3.5 mph SW5.6 kmh SW 12.0 mph19.3 kmh 29.75 in1007.5 mb 0.00 in0.0 mm 0.00 in0.0 mm 0.52 in13.2 mm
01:53 PM 85.6°F29.8°C 74.5°F23.6°C 69% 2.8 mph SW4.5 kmh SW 12.0 mph19.3 kmh 29.75 in1007.5 mb 0.00 in0.0 mm 0.00 in0.0 mm 0.52 in13.2 mm
01:58 PM 85.3°F29.6°C 74.7°F23.7°C 70% 3.0 mph S4.8 kmh S 12.0 mph19.3 kmh 29.74 in1007.1 mb 0.00 in0.0 mm 0.00 in0.0 mm 0.52 in13.2 mm
02:03 PM 85.6°F29.8°C 74.5°F23.6°C 69% 3.6 mph SW5.8 kmh SW 11.0 mph17.7 kmh 29.74 in1007.1 mb 0.00 in0.0 mm 0.00 in0.0 mm 0.52 in13.2 mm
02:06 PM 85.9°F29.9°C 74.8°F23.8°C 69% 2.5 mph SSW4.0 kmh SSW 11.0 mph17.7 kmh 29.74 in1007.1 mb 0.00 in0.0 mm 0.00 in0.0 mm 0.52 in13.2 mm
02:11 PM 86.1°F30.1°C 75.0°F23.9°C 69% 4.8 mph SW7.7 kmh SW 12.0 mph19.3 kmh 29.74 in1007.1 mb 0.00 in0.0 mm 0.00 in0.0 mm 0.52 in13.2 mm
02:16 PM 86.6°F30.3°C 75.9°F24.4°C 70% 2.2 mph SW3.5 kmh SW 12.0 mph19.3 kmh 29.74 in1007.1 mb 0.00 in0.0 mm 0.00 in0.0 mm 0.52 in13.2 mm
02:21 PM 86.3°F30.2°C 74.3°F23.5°C 67% 4.2 mph SW6.8 kmh SW 12.0 mph19.3 kmh 29.73 in1006.8 mb 0.00 in0.0 mm 0.00 in0.0 mm 0.52 in13.2 mm
02:26 PM 86.0°F30.0°C 74.2°F23.4°C 68% 3.8 mph SW6.1 kmh SW 12.0 mph19.3 kmh 29.73 in1006.8 mb 0.00 in0.0 mm 0.00 in0.0 mm 0.52 in13.2 mm
02:31 PM 86.4°F30.2°C 74.9°F23.8°C 68% 2.3 mph WSW3.7 kmh WSW 12.0 mph19.3 kmh 29.73 in1006.8 mb 0.00 in0.0 mm 0.00 in0.0 mm 0.52 in13.2 mm
02:36 PM 87.1°F30.6°C 76.0°F24.4°C 69% 2.6 mph SW4.2 kmh SW 11.0 mph17.7 kmh 29.72 in1006.4 mb 0.00 in0.0 mm 0.00 in0.0 mm 0.52 in13.2 mm
02:41 PM 87.3°F30.7°C 75.3°F24.1°C 67% 3.7 mph SW6.0 kmh SW 11.0 mph17.7 kmh 29.72 in1006.4 mb 0.00 in0.0 mm 0.00 in0.0 mm 0.52 in13.2 mm
02:46 PM 86.5°F30.3°C 75.0°F23.9°C 68% 2.6 mph S4.2 kmh S 11.0 mph17.7 kmh 29.72 in1006.4 mb 0.00 in0.0 mm 0.00 in0.0 mm 0.52 in13.2 mm
02:51 PM 86.8°F30.4°C 75.7°F24.3°C 69% 2.7 mph SSW4.3 kmh SSW 9.0 mph14.5 kmh 29.72 in1006.4 mb 0.00 in0.0 mm 0.00 in0.0 mm 0.52 in13.2 mm
02:56 PM 87.6°F30.9°C 76.0°F24.4°C 68% 2.9 mph S4.7 kmh S 9.0 mph14.5 kmh 29.71 in1006.1 mb 0.00 in0.0 mm 0.00 in0.0 mm 0.52 in13.2 mm
03:01 PM 87.2°F30.7°C 74.5°F23.6°C 66% 3.9 mph SW6.3 kmh SW 13.0 mph20.9 kmh 29.72 in1006.4 mb 0.00 in0.0 mm 0.00 in0.0 mm 0.52 in13.2 mm
03:06 PM 86.5°F30.3°C 74.1°F23.4°C 66% 3.1 mph SW5.0 kmh SW 13.0 mph20.9 kmh 29.71 in1006.1 mb 0.00 in0.0 mm 0.00 in0.0 mm 0.52 in13.2 mm
03:11 PM 87.0°F30.6°C 74.3°F23.5°C 66% 2.1 mph SW3.4 kmh SW 13.0 mph20.9 kmh 29.71 in1006.1 mb 0.00 in0.0 mm 0.00 in0.0 mm 0.52 in13.2 mm
03:16 PM 87.4°F30.8°C 74.9°F23.8°C 66% 2.0 mph S3.2 kmh S 13.0 mph20.9 kmh 29.71 in1006.1 mb 0.00 in0.0 mm 0.00 in0.0 mm 0.52 in13.2 mm
03:21 PM 87.0°F30.6°C 74.5°F23.6°C 66% 4.0 mph SSW6.4 kmh SSW 9.0 mph14.5 kmh 29.72 in1006.4 mb 0.00 in0.0 mm 0.00 in0.0 mm 0.52 in13.2 mm
03:26 PM 87.0°F30.6°C 74.1°F23.4°C 65% 3.4 mph SW5.5 kmh SW 12.0 mph19.3 kmh 29.72 in1006.4 mb 0.00 in0.0 mm 0.00 in0.0 mm 0.52 in13.2 mm
03:31 PM 87.0°F30.6°C 73.6°F23.1°C 64% 4.1 mph WSW6.6 kmh WSW 13.0 mph20.9 kmh 29.72 in1006.4 mb 0.00 in0.0 mm 0.00 in0.0 mm 0.52 in13.2 mm
03:36 PM 86.9°F30.5°C 72.8°F22.7°C 63% 3.5 mph SW5.6 kmh SW 13.0 mph20.9 kmh 29.72 in1006.4 mb 0.00 in0.0 mm 0.00 in0.0 mm 0.52 in13.2 mm
03:41 PM 87.0°F30.6°C 73.2°F22.9°C 63% 3.2 mph SSW5.1 kmh SSW 13.0 mph20.9 kmh 29.71 in1006.1 mb 0.00 in0.0 mm 0.00 in0.0 mm 0.52 in13.2 mm
03:46 PM 87.0°F30.6°C 74.3°F23.5°C 66% 2.0 mph SW3.2 kmh SW 13.0 mph20.9 kmh 29.72 in1006.4 mb 0.00 in0.0 mm 0.00 in0.0 mm 0.52 in13.2 mm
03:52 PM 87.1°F30.6°C 73.7°F23.2°C 64% 4.1 mph SSW6.6 kmh SSW 9.0 mph14.5 kmh 29.71 in1006.1 mb 0.00 in0.0 mm 0.00 in0.0 mm 0.52 in13.2 mm
03:56 PM 86.9°F30.5°C 73.1°F22.8°C 63% 2.6 mph SSW4.2 kmh SSW 9.0 mph14.5 kmh 29.71 in1006.1 mb 0.00 in0.0 mm 0.00 in0.0 mm 0.52 in13.2 mm
04:02 PM 86.8°F30.4°C 73.4°F23.0°C 64% 3.0 mph SW4.8 kmh SW 9.0 mph14.5 kmh 29.71 in1006.1 mb 0.00 in0.0 mm 0.00 in0.0 mm 0.52 in13.2 mm
04:07 PM 86.9°F30.5°C 74.5°F23.6°C 66% 2.4 mph S3.9 kmh S 9.0 mph14.5 kmh 29.71 in1006.1 mb 0.00 in0.0 mm 0.00 in0.0 mm 0.52 in13.2 mm
04:12 PM 86.7°F30.4°C 74.7°F23.7°C 67% 1.9 mph SW3.1 kmh SW 8.0 mph12.9 kmh 29.71 in1006.1 mb 0.00 in0.0 mm 0.00 in0.0 mm 0.52 in13.2 mm
04:17 PM 86.6°F30.3°C 75.2°F24.0°C 69% 1.6 mph SW2.6 kmh SW 8.0 mph12.9 kmh 29.71 in1006.1 mb 0.00 in0.0 mm 0.00 in0.0 mm 0.52 in13.2 mm
04:22 PM 86.5°F30.3°C 75.5°F24.2°C 70% 2.3 mph SSW3.7 kmh SSW 8.0 mph12.9 kmh 29.71 in1006.1 mb 0.00 in0.0 mm 0.00 in0.0 mm 0.52 in13.2 mm
04:27 PM 86.1°F30.1°C 75.8°F24.3°C 71% 1.0 mph WSW1.6 kmh WSW 6.0 mph9.7 kmh 29.71 in1006.1 mb 0.00 in0.0 mm 0.00 in0.0 mm 0.52 in13.2 mm
04:32 PM 85.7°F29.8°C 75.5°F24.2°C 71% 1.8 mph S2.9 kmh S 6.0 mph9.7 kmh 29.72 in1006.4 mb 0.00 in0.0 mm 0.00 in0.0 mm 0.52 in13.2 mm
04:37 PM 85.3°F29.6°C 75.5°F24.2°C 72% 2.8 mph SW4.5 kmh SW 6.0 mph9.7 kmh 29.72 in1006.4 mb 0.00 in0.0 mm 0.00 in0.0 mm 0.52 in13.2 mm
04:42 PM 84.8°F29.3°C 75.4°F24.1°C 73% 2.8 mph SW4.5 kmh SW 7.0 mph11.3 kmh 29.72 in1006.4 mb 0.00 in0.0 mm 0.00 in0.0 mm 0.52 in13.2 mm
04:46 PM 84.6°F29.2°C 75.6°F24.2°C 74% 1.7 mph SW2.7 kmh SW 7.0 mph11.3 kmh 29.72 in1006.4 mb 0.00 in0.0 mm 0.00 in0.0 mm 0.52 in13.2 mm
04:52 PM 84.3°F29.1°C 75.7°F24.3°C 75% 1.8 mph SSW2.9 kmh SSW 7.0 mph11.3 kmh 29.73 in1006.8 mb 0.00 in0.0 mm 0.00 in0.0 mm 0.52 in13.2 mm
04:57 PM 84.0°F28.9°C 75.8°F24.3°C 76% Calm Calm 7.0 mph11.3 kmh 29.73 in1006.8 mb 0.00 in0.0 mm 0.00 in0.0 mm 0.52 in13.2 mm
05:02 PM 83.7°F28.7°C 75.5°F24.2°C 76% 2.4 mph SW3.9 kmh SW 6.0 mph9.7 kmh 29.72 in1006.4 mb 0.00 in0.0 mm 0.00 in0.0 mm 0.52 in13.2 mm
05:07 PM 83.4°F28.6°C 75.4°F24.1°C 77% 3.8 mph WSW6.1 kmh WSW 6.0 mph9.7 kmh 29.72 in1006.4 mb 0.00 in0.0 mm 0.00 in0.0 mm 0.52 in13.2 mm
05:12 PM 83.1°F28.4°C 75.3°F24.1°C 77% 1.8 mph SSW2.9 kmh SSW 7.0 mph11.3 kmh 29.73 in1006.8 mb 0.00 in0.0 mm 0.00 in0.0 mm 0.52 in13.2 mm
05:17 PM 81.8°F27.7°C 71.7°F22.1°C 71% 12.5 mph SW20.1 kmh SW 26.0 mph41.8 kmh 29.75 in1007.5 mb 0.00 in0.0 mm 0.00 in0.0 mm 0.52 in13.2 mm
05:23 PM 78.3°F25.7°C 69.9°F21.1°C 75% 6.0 mph SE9.7 kmh SE 27.0 mph43.5 kmh 29.76 in1007.8 mb 0.00 in0.0 mm 0.00 in0.0 mm 0.52 in13.2 mm
05:28 PM 75.3°F24.1°C 68.7°F20.4°C 80% 8.4 mph WSW13.5 kmh WSW 27.0 mph43.5 kmh 29.76 in1007.8 mb 0.00 in0.0 mm 0.00 in0.0 mm 0.52 in13.2 mm
05:33 PM 73.7°F23.2°C 68.9°F20.5°C 85% 6.6 mph SW10.6 kmh SW 27.0 mph43.5 kmh 29.76 in1007.8 mb 0.01 in0.3 mm 0.12 in3.0 mm 0.53 in13.5 mm
05:38 PM 72.6°F22.6°C 69.2°F20.7°C 89% 4.6 mph SW7.4 kmh SW 20.0 mph32.2 kmh 29.76 in1007.8 mb 0.02 in0.5 mm 0.12 in3.0 mm 0.54 in13.7 mm
05:43 PM 71.9°F22.2°C 69.1°F20.6°C 91% 5.6 mph SW9.0 kmh SW 20.0 mph32.2 kmh 29.76 in1007.8 mb 0.04 in1.0 mm 0.24 in6.1 mm 0.56 in14.2 mm
05:48 PM 71.2°F21.8°C 68.7°F20.4°C 92% 3.1 mph WSW5.0 kmh WSW 17.0 mph27.4 kmh 29.75 in1007.5 mb 0.06 in1.5 mm 0.24 in6.1 mm 0.58 in14.7 mm
05:53 PM 70.8°F21.6°C 68.6°F20.3°C 93% 2.6 mph SW4.2 kmh SW 14.0 mph22.5 kmh 29.74 in1007.1 mb 0.07 in1.8 mm 0.12 in3.0 mm 0.59 in15.0 mm
05:58 PM 70.5°F21.4°C 68.3°F20.2°C 93% 2.0 mph WSW3.2 kmh WSW 14.0 mph22.5 kmh 29.72 in1006.4 mb 0.08 in2.0 mm 0.12 in3.0 mm 0.60 in15.2 mm
06:03 PM 70.3°F21.3°C 68.5°F20.3°C 94% 1.0 mph WSW1.6 kmh WSW 10.0 mph16.1 kmh 29.70 in1005.8 mb 0.08 in2.0 mm 0.00 in0.0 mm 0.60 in15.2 mm
06:08 PM 70.2°F21.2°C 68.4°F20.2°C 94% 2.2 mph SSW3.5 kmh SSW 10.0 mph16.1 kmh 29.71 in1006.1 mb 0.08 in2.0 mm 0.00 in0.0 mm 0.60 in15.2 mm
06:13 PM 70.1°F21.2°C 68.6°F20.3°C 95% 1.6 mph SW2.6 kmh SW 6.0 mph9.7 kmh 29.71 in1006.1 mb 0.08 in2.0 mm 0.00 in0.0 mm 0.60 in15.2 mm
06:18 PM 70.1°F21.2°C 68.6°F20.3°C 95% 1.8 mph SW2.9 kmh SW 9.0 mph14.5 kmh 29.72 in1006.4 mb 0.08 in2.0 mm 0.00 in0.0 mm 0.60 in15.2 mm
06:23 PM 70.0°F21.1°C 68.5°F20.3°C 95% 1.9 mph SW3.1 kmh SW 9.0 mph14.5 kmh 29.74 in1007.1 mb 0.08 in2.0 mm 0.00 in0.0 mm 0.60 in15.2 mm
06:28 PM 69.9°F21.1°C 68.4°F20.2°C 95% 4.4 mph SW7.1 kmh SW 11.0 mph17.7 kmh 29.75 in1007.5 mb 0.08 in2.0 mm 0.00 in0.0 mm 0.60 in15.2 mm
06:33 PM 69.9°F21.1°C 68.4°F20.2°C 95% 3.3 mph SW5.3 kmh SW 12.0 mph19.3 kmh 29.74 in1007.1 mb 0.07 in1.8 mm 0.00 in0.0 mm 0.60 in15.2 mm
06:38 PM 69.9°F21.1°C 68.4°F20.2°C 95% 2.1 mph WSW3.4 kmh WSW 12.0 mph19.3 kmh 29.73 in1006.8 mb 0.05 in1.3 mm 0.00 in0.0 mm 0.60 in15.2 mm
06:43 PM 70.0°F21.1°C 68.5°F20.3°C 95% 2.6 mph SW4.2 kmh SW 12.0 mph19.3 kmh 29.72 in1006.4 mb 0.04 in1.0 mm 0.00 in0.0 mm 0.60 in15.2 mm
06:48 PM 70.2°F21.2°C 69.0°F20.6°C 96% 1.7 mph WSW2.7 kmh WSW 12.0 mph19.3 kmh 29.72 in1006.4 mb 0.02 in0.5 mm 0.00 in0.0 mm 0.60 in15.2 mm
06:53 PM 70.3°F21.3°C 69.1°F20.6°C 96% 1.7 mph W2.7 kmh W 10.0 mph16.1 kmh 29.72 in1006.4 mb 0.01 in0.3 mm 0.00 in0.0 mm 0.60 in15.2 mm
06:58 PM 70.5°F21.4°C 69.3°F20.7°C 96% 1.7 mph WSW2.7 kmh WSW 6.0 mph9.7 kmh 29.73 in1006.8 mb 0.00 in0.0 mm 0.00 in0.0 mm 0.60 in15.2 mm
07:03 PM 70.7°F21.5°C 69.5°F20.8°C 96% 1.6 mph SW2.6 kmh SW 5.0 mph8.0 kmh 29.72 in1006.4 mb 0.00 in0.0 mm 0.00 in0.0 mm 0.60 in15.2 mm
07:08 PM 70.7°F21.5°C 69.5°F20.8°C 96% 2.0 mph WSW3.2 kmh WSW 5.0 mph8.0 kmh 29.72 in1006.4 mb 0.00 in0.0 mm 0.00 in0.0 mm 0.60 in15.2 mm
07:13 PM 70.8°F21.6°C 69.6°F20.9°C 96% 1.7 mph SW2.7 kmh SW 5.0 mph8.0 kmh 29.73 in1006.8 mb 0.00 in0.0 mm 0.00 in0.0 mm 0.60 in15.2 mm
07:18 PM 70.8°F21.6°C 69.3°F20.7°C 95% 1.9 mph SW3.1 kmh SW 5.0 mph8.0 kmh 29.73 in1006.8 mb 0.00 in0.0 mm 0.00 in0.0 mm 0.60 in15.2 mm
07:23 PM 71.0°F21.7°C 69.8°F21.0°C 96% Calm Calm 5.0 mph8.0 kmh 29.73 in1006.8 mb 0.00 in0.0 mm 0.00 in0.0 mm 0.60 in15.2 mm
07:28 PM 71.0°F21.7°C 69.8°F21.0°C 96% Calm Calm 4.0 mph6.4 kmh 29.73 in1006.8 mb 0.00 in0.0 mm 0.00 in0.0 mm 0.60 in15.2 mm
07:33 PM 71.1°F21.7°C 69.9°F21.1°C 96% 1.4 mph SE2.3 kmh SE 4.0 mph6.4 kmh 29.74 in1007.1 mb 0.00 in0.0 mm 0.00 in0.0 mm 0.60 in15.2 mm
07:38 PM 71.0°F21.7°C 69.5°F20.8°C 95% Calm Calm 2.0 mph3.2 kmh 29.74 in1007.1 mb 0.00 in0.0 mm 0.00 in0.0 mm 0.60 in15.2 mm
07:44 PM 71.0°F21.7°C 69.5°F20.8°C 95% 1.0 mph SE1.6 kmh SE 2.0 mph3.2 kmh 29.74 in1007.1 mb 0.00 in0.0 mm 0.00 in0.0 mm 0.60 in15.2 mm
07:48 PM 71.1°F21.7°C 69.9°F21.1°C 96% Calm Calm 2.0 mph3.2 kmh 29.75 in1007.5 mb 0.00 in0.0 mm 0.00 in0.0 mm 0.60 in15.2 mm
07:54 PM 71.1°F21.7°C 69.9°F21.1°C 96% Calm Calm 1.0 mph1.6 kmh 29.75 in1007.5 mb 0.00 in0.0 mm 0.00 in0.0 mm 0.60 in15.2 mm
07:58 PM 71.2°F21.8°C 70.0°F21.1°C 96% Calm Calm 1.0 mph1.6 kmh 29.75 in1007.5 mb 0.00 in0.0 mm 0.00 in0.0 mm 0.60 in15.2 mm
08:04 PM 71.0°F21.7°C 69.5°F20.8°C 95% Calm Calm 1.0 mph1.6 kmh 29.75 in1007.5 mb 0.00 in0.0 mm 0.00 in0.0 mm 0.60 in15.2 mm
08:08 PM 71.0°F21.7°C 69.8°F21.0°C 96% Calm Calm 1.0 mph1.6 kmh 29.74 in1007.1 mb 0.00 in0.0 mm 0.00 in0.0 mm 0.60 in15.2 mm
08:14 PM 70.9°F21.6°C 69.7°F20.9°C 96% Calm Calm 1.0 mph1.6 kmh 29.74 in1007.1 mb 0.00 in0.0 mm 0.00 in0.0 mm 0.60 in15.2 mm
08:19 PM 70.8°F21.6°C 69.3°F20.7°C 95% Calm Calm 1.0 mph1.6 kmh 29.74 in1007.1 mb 0.00 in0.0 mm 0.00 in0.0 mm 0.60 in15.2 mm
08:24 PM 70.7°F21.5°C 69.2°F20.7°C 95% 1.0 mph WSW1.6 kmh WSW 1.0 mph1.6 kmh 29.74 in1007.1 mb 0.00 in0.0 mm 0.00 in0.0 mm 0.60 in15.2 mm
08:29 PM 70.8°F21.6°C 69.6°F20.9°C 96% Calm Calm 1.0 mph1.6 kmh 29.74 in1007.1 mb 0.00 in0.0 mm 0.00 in0.0 mm 0.60 in15.2 mm
08:34 PM 70.9°F21.6°C 69.7°F20.9°C 96% Calm Calm 1.0 mph1.6 kmh 29.74 in1007.1 mb 0.00 in0.0 mm 0.00 in0.0 mm 0.60 in15.2 mm
08:39 PM 70.8°F21.6°C 69.6°F20.9°C 96% Calm Calm 1.0 mph1.6 kmh 29.74 in1007.1 mb 0.00 in0.0 mm 0.00 in0.0 mm 0.60 in15.2 mm
08:44 PM 70.8°F21.6°C 69.6°F20.9°C 96% Calm Calm 1.0 mph1.6 kmh 29.74 in1007.1 mb 0.00 in0.0 mm 0.00 in0.0 mm 0.60 in15.2 mm
08:48 PM 70.6°F21.4°C 69.4°F20.8°C 96% Calm Calm 1.0 mph1.6 kmh 29.74 in1007.1 mb 0.00 in0.0 mm 0.00 in0.0 mm 0.60 in15.2 mm
08:54 PM 70.5°F21.4°C 69.3°F20.7°C 96% Calm Calm 1.0 mph1.6 kmh 29.74 in1007.1 mb 0.00 in0.0 mm 0.00 in0.0 mm 0.60 in15.2 mm
08:59 PM 70.4°F21.3°C 69.2°F20.7°C 96% Calm Calm -- 29.74 in1007.1 mb 0.00 in0.0 mm 0.00 in0.0 mm 0.60 in15.2 mm
09:04 PM 70.3°F21.3°C 69.1°F20.6°C 96% Calm Calm -- 29.75 in1007.5 mb 0.00 in0.0 mm 0.00 in0.0 mm 0.60 in15.2 mm
09:09 PM 70.3°F21.3°C 69.1°F20.6°C 96% Calm Calm -- 29.74 in1007.1 mb 0.00 in0.0 mm 0.00 in0.0 mm 0.60 in15.2 mm
09:14 PM 70.2°F21.2°C 69.0°F20.6°C 96% Calm Calm -- 29.75 in1007.5 mb 0.00 in0.0 mm 0.00 in0.0 mm 0.60 in15.2 mm
09:19 PM 70.1°F21.2°C 68.9°F20.5°C 96% Calm Calm -- 29.75 in1007.5 mb 0.00 in0.0 mm 0.00 in0.0 mm 0.60 in15.2 mm
09:24 PM 70.2°F21.2°C 69.0°F20.6°C 96% Calm Calm -- 29.75 in1007.5 mb 0.00 in0.0 mm 0.00 in0.0 mm 0.60 in15.2 mm
09:29 PM 70.1°F21.2°C 68.9°F20.5°C 96% Calm Calm -- 29.76 in1007.8 mb 0.00 in0.0 mm 0.00 in0.0 mm 0.60 in15.2 mm
09:34 PM 70.0°F21.1°C 68.8°F20.4°C 96% Calm Calm -- 29.76 in1007.8 mb 0.00 in0.0 mm 0.00 in0.0 mm 0.60 in15.2 mm
09:39 PM 69.9°F21.1°C 68.7°F20.4°C 96% Calm Calm -- 29.77 in1008.1 mb 0.00 in0.0 mm 0.00 in0.0 mm 0.60 in15.2 mm
09:44 PM 69.9°F21.1°C 69.0°F20.6°C 97% Calm Calm -- 29.77 in1008.1 mb 0.00 in0.0 mm 0.00 in0.0 mm 0.60 in15.2 mm
09:49 PM 69.9°F21.1°C 69.0°F20.6°C 97% Calm Calm -- 29.77 in1008.1 mb 0.00 in0.0 mm 0.00 in0.0 mm 0.60 in15.2 mm
09:54 PM 69.9°F21.1°C 69.0°F20.6°C 97% Calm Calm -- 29.77 in1008.1 mb 0.00 in0.0 mm 0.00 in0.0 mm 0.60 in15.2 mm
09:59 PM 69.9°F21.1°C 69.0°F20.6°C 97% Calm Calm -- 29.77 in1008.1 mb 0.00 in0.0 mm 0.00 in0.0 mm 0.60 in15.2 mm
10:04 PM 69.9°F21.1°C 69.0°F20.6°C 97% Calm Calm -- 29.77 in1008.1 mb 0.00 in0.0 mm 0.00 in0.0 mm 0.60 in15.2 mm
10:09 PM 69.8°F21.0°C 68.9°F20.5°C 97% Calm Calm -- 29.77 in1008.1 mb 0.00 in0.0 mm 0.00 in0.0 mm 0.60 in15.2 mm
10:14 PM 69.9°F21.1°C 69.0°F20.6°C 97% Calm Calm -- 29.78 in1008.5 mb 0.00 in0.0 mm 0.00 in0.0 mm 0.60 in15.2 mm
10:19 PM 70.1°F21.2°C 69.2°F20.7°C 97% 1.0 mph SE1.6 kmh SE 2.0 mph3.2 kmh 29.78 in1008.5 mb 0.00 in0.0 mm 0.00 in0.0 mm 0.60 in15.2 mm
10:24 PM 70.0°F21.1°C 69.1°F20.6°C 97% 1.0 mph ESE1.6 kmh ESE 2.0 mph3.2 kmh 29.78 in1008.5 mb 0.00 in0.0 mm 0.00 in0.0 mm 0.60 in15.2 mm
10:29 PM 69.9°F21.1°C 69.0°F20.6°C 97% 1.3 mph SE2.1 kmh SE 2.0 mph3.2 kmh 29.78 in1008.5 mb 0.00 in0.0 mm 0.00 in0.0 mm 0.60 in15.2 mm
10:34 PM 69.9°F21.1°C 69.0°F20.6°C 97% 1.5 mph SE2.4 kmh SE 3.0 mph4.8 kmh 29.79 in1008.8 mb 0.00 in0.0 mm 0.00 in0.0 mm 0.60 in15.2 mm
10:39 PM 69.8°F21.0°C 68.9°F20.5°C 97% 2.3 mph ESE3.7 kmh ESE 4.0 mph6.4 kmh 29.79 in1008.8 mb 0.00 in0.0 mm 0.00 in0.0 mm 0.60 in15.2 mm
10:44 PM 69.7°F20.9°C 68.8°F20.4°C 97% 1.5 mph SE2.4 kmh SE 4.0 mph6.4 kmh 29.79 in1008.8 mb 0.00 in0.0 mm 0.00 in0.0 mm 0.60 in15.2 mm
10:49 PM 69.7°F20.9°C 68.8°F20.4°C 97% 1.9 mph SE3.1 kmh SE 5.0 mph8.0 kmh 29.79 in1008.8 mb 0.00 in0.0 mm 0.00 in0.0 mm 0.60 in15.2 mm
10:54 PM 69.6°F20.9°C 68.7°F20.4°C 97% 2.6 mph SE4.2 kmh SE 6.0 mph9.7 kmh 29.79 in1008.8 mb 0.00 in0.0 mm 0.00 in0.0 mm 0.60 in15.2 mm
10:59 PM 69.5°F20.8°C 68.6°F20.3°C 97% 1.9 mph SE3.1 kmh SE 6.0 mph9.7 kmh 29.79 in1008.8 mb 0.00 in0.0 mm 0.00 in0.0 mm 0.60 in15.2 mm
11:04 PM 69.4°F20.8°C 68.5°F20.3°C 97% 2.2 mph SE3.5 kmh SE 6.0 mph9.7 kmh 29.79 in1008.8 mb 0.00 in0.0 mm 0.00 in0.0 mm 0.60 in15.2 mm
11:09 PM 69.4°F20.8°C 68.5°F20.3°C 97% 2.6 mph SE4.2 kmh SE 6.0 mph9.7 kmh 29.80 in1009.1 mb 0.00 in0.0 mm 0.00 in0.0 mm 0.60 in15.2 mm
11:14 PM 69.4°F20.8°C 68.5°F20.3°C 97% 2.0 mph SE3.2 kmh SE 6.0 mph9.7 kmh 29.79 in1008.8 mb 0.00 in0.0 mm 0.00 in0.0 mm 0.60 in15.2 mm
11:19 PM 69.4°F20.8°C 68.5°F20.3°C 97% 1.9 mph SE3.1 kmh SE 5.0 mph8.0 kmh 29.79 in1008.8 mb 0.00 in0.0 mm 0.00 in0.0 mm 0.60 in15.2 mm
11:22 PM 69.3°F20.7°C 68.4°F20.2°C 97% 1.1 mph SE1.8 kmh SE 5.0 mph8.0 kmh 29.80 in1009.1 mb 0.00 in0.0 mm 0.00 in0.0 mm 0.60 in15.2 mm
11:27 PM 69.3°F20.7°C 68.4°F20.2°C 97% 1.4 mph SE2.3 kmh SE 5.0 mph8.0 kmh 29.80 in1009.1 mb 0.00 in0.0 mm 0.00 in0.0 mm 0.60 in15.2 mm
11:33 PM 69.4°F20.8°C 68.8°F20.4°C 98% 2.0 mph ESE3.2 kmh ESE 5.0 mph8.0 kmh 29.80 in1009.1 mb 0.00 in0.0 mm 0.00 in0.0 mm 0.60 in15.2 mm
11:38 PM 69.4°F20.8°C 68.8°F20.4°C 98% 2.1 mph E3.4 kmh E 5.0 mph8.0 kmh 29.80 in1009.1 mb 0.00 in0.0 mm 0.00 in0.0 mm 0.60 in15.2 mm
11:43 PM 69.4°F20.8°C 68.8°F20.4°C 98% 2.2 mph ESE3.5 kmh ESE 4.0 mph6.4 kmh 29.80 in1009.1 mb 0.00 in0.0 mm 0.00 in0.0 mm 0.60 in15.2 mm
11:48 PM 69.5°F20.8°C 68.9°F20.5°C 98% 1.4 mph SE2.3 kmh SE 5.0 mph8.0 kmh 29.80 in1009.1 mb 0.00 in0.0 mm 0.00 in0.0 mm 0.60 in15.2 mm
11:53 PM 69.5°F20.8°C 68.9°F20.5°C 98% 2.8 mph ESE4.5 kmh ESE 8.0 mph12.9 kmh 29.80 in1009.1 mb 0.00 in0.0 mm 0.00 in0.0 mm 0.60 in15.2 mm
11:58 PM 69.5°F20.8°C 68.9°F20.5°C 98% 2.5 mph ESE4.0 kmh ESE 8.0 mph12.9 kmh 29.80 in1009.1 mb 0.00 in0.0 mm 0.00 in0.0 mm 0.60 in15.2 mm